Terminal Aerodrome Forecast
Issued by NWS

Home | Current Version | Previous Version | Text Only | Print | Product List | Glossary On
Versions: 1 2 3 4 5 6 7 8 9 10 11 12 13 14
000
FTUS45 KABQ 261131
TAFFMN
TAF
KFMN 261131Z 2612/2712 07005KT P6SM BKN100
     FM261900 28007KT P6SM FEW080
     FM262200 29011KT P6SM SCT080
     FM270200 31008KT P6SM BKN090
     FM270600 VRB04KT P6SM BKN100=

USA.gov is the U.S. government's official web portal to all federal, state and local government web resources and services.